Time;durP1;ratioP1;P1;durP2;ratioP2;P2;SDS_P1;SDS_P2;PMS_P1;PMS_P2;Temp;Humidity;BMP_temperature;BMP_pressure;BME280_temperature;BME280_humidity;BME280_pressure;Samples;Min_cycle;Max_cycle;Signal;HPM_P1;HPM_P2
2022/04/27 00:00:02;;;;;;;8.0;7.2;;;;;;;8.9;100.0;102090;;;;
2022/04/27 00:01:00;;;;;;;8.0;7.2;;;;;;;8.9;100.0;102090;;;;
2022/04/27 00:02:01;;;;;;;8.0;7.2;;;;;;;8.9;100.0;102090;;;;
2022/04/27 00:03:01;;;;;;;8.0;7.2;;;;;;;8.9;100.0;102090;;;;
2022/04/27 00:04:00;;;;;;;8.0;7.2;;;;;;;8.9;100.0;102090;;;;
2022/04/27 00:05:00;;;;;;;8.0;7.2;;;;;;;8.9;100.0;102090;;;;
2022/04/27 00:06:00;;;;;;;8.0;7.2;;;;;;;8.9;100.0;102090;;;;
2022/04/27 00:07:02;;;;;;;8.0;7.2;;;;;;;8.9;100.0;102090;;;;
2022/04/27 00:08:00;;;;;;;8.0;7.2;;;;;;;8.8;100.0;102090;;;;
2022/04/27 00:09:00;;;;;;;8.0;7.2;;;;;;;8.8;100.0;102090;;;;
2022/04/27 00:10:00;;;;;;;8.0;7.2;;;;;;;8.8;100.0;102090;;;;
2022/04/27 00:11:00;;;;;;;8.0;7.2;;;;;;;8.8;100.0;102090;;;;
2022/04/27 00:12:01;;;;;;;8.0;7.2;;;;;;;8.8;100.0;102090;;;;
2022/04/27 00:13:00;;;;;;;8.0;7.2;;;;;;;8.8;100.0;102090;;;;
2022/04/27 00:14:00;;;;;;;8.4;7.6;;;;;;;8.9;100.0;102090;;;;
2022/04/27 00:15:00;;;;;;;8.4;7.6;;;;;;;8.9;100.0;102090;;;;
2022/04/27 00:16:00;;;;;;;8.4;7.6;;;;;;;8.8;100.0;102090;;;;
2022/04/27 00:17:00;;;;;;;8.4;7.6;;;;;;;8.8;100.0;102090;;;;
2022/04/27 00:18:00;;;;;;;8.4;7.6;;;;;;;8.7;100.0;102090;;;;
2022/04/27 00:19:01;;;;;;;8.4;7.6;;;;;;;8.7;100.0;102090;;;;
2022/04/27 00:20:00;;;;;;;8.4;7.6;;;;;;;8.7;100.0;102090;;;;
2022/04/27 00:21:00;;;;;;;8.4;7.6;;;;;;;8.7;100.0;102090;;;;
2022/04/27 00:22:00;;;;;;;8.4;7.6;;;;;;;8.6;100.0;102080;;;;
2022/04/27 00:23:00;;;;;;;8.4;7.6;;;;;;;8.6;100.0;102080;;;;
2022/04/27 00:24:00;;;;;;;8.4;7.6;;;;;;;8.5;100.0;102080;;;;
2022/04/27 00:25:00;;;;;;;8.4;7.6;;;;;;;8.5;100.0;102080;;;;
2022/04/27 00:26:00;;;;;;;8.4;7.6;;;;;;;8.4;100.0;102080;;;;
2022/04/27 00:27:00;;;;;;;8.4;7.6;;;;;;;8.4;100.0;102080;;;;
2022/04/27 00:28:00;;;;;;;8.4;7.6;;;;;;;8.5;100.0;102080;;;;
2022/04/27 00:29:00;;;;;;;8.4;7.6;;;;;;;8.5;100.0;102080;;;;
2022/04/27 00:30:00;;;;;;;8.4;7.6;;;;;;;8.5;100.0;102080;;;;
2022/04/27 00:31:00;;;;;;;8.4;7.6;;;;;;;8.5;100.0;102080;;;;
2022/04/27 00:32:00;;;;;;;8.4;7.6;;;;;;;8.4;100.0;102080;;;;
2022/04/27 00:33:00;;;;;;;8.4;7.6;;;;;;;8.4;100.0;102080;;;;
2022/04/27 00:34:00;;;;;;;9.3;8.0;;;;;;;8.5;100.0;102080;;;;
2022/04/27 00:35:00;;;;;;;9.3;8.0;;;;;;;8.5;100.0;102080;;;;
2022/04/27 00:36:00;;;;;;;9.3;8.0;;;;;;;8.4;100.0;102080;;;;
2022/04/27 00:37:00;;;;;;;9.3;8.0;;;;;;;8.4;100.0;102080;;;;
2022/04/27 00:38:00;;;;;;;9.3;8.0;;;;;;;8.4;100.0;102090;;;;
2022/04/27 00:39:00;;;;;;;9.3;8.0;;;;;;;8.4;100.0;102090;;;;
2022/04/27 00:40:00;;;;;;;9.3;8.0;;;;;;;8.3;100.0;102090;;;;
2022/04/27 00:41:00;;;;;;;9.3;8.0;;;;;;;8.3;100.0;102090;;;;
2022/04/27 00:42:10;;;;;;;9.3;8.0;;;;;;;8.3;100.0;102090;;;;
2022/04/27 00:43:00;;;;;;;9.3;8.0;;;;;;;8.3;100.0;102090;;;;
2022/04/27 00:44:00;;;;;;;9.3;8.0;;;;;;;8.3;100.0;102090;;;;
2022/04/27 00:45:02;;;;;;;9.3;8.0;;;;;;;8.3;100.0;102090;;;;
2022/04/27 00:46:00;;;;;;;9.3;8.0;;;;;;;8.3;100.0;102090;;;;
2022/04/27 00:47:01;;;;;;;9.3;8.0;;;;;;;8.3;100.0;102090;;;;
2022/04/27 00:48:00;;;;;;;9.3;8.0;;;;;;;8.2;100.0;102090;;;;
2022/04/27 00:49:00;;;;;;;9.3;8.0;;;;;;;8.2;100.0;102090;;;;
2022/04/27 00:50:02;;;;;;;9.3;8.0;;;;;;;8.1;100.0;102090;;;;
2022/04/27 00:51:01;;;;;;;9.3;8.0;;;;;;;8.1;100.0;102090;;;;
2022/04/27 00:52:00;;;;;;;9.3;8.0;;;;;;;8.1;100.0;102090;;;;
2022/04/27 00:53:00;;;;;;;9.3;8.0;;;;;;;8.1;100.0;102090;;;;
2022/04/27 00:54:01;;;;;;;9.8;8.8;;;;;;;8.2;100.0;102090;;;;
2022/04/27 00:55:00;;;;;;;9.8;8.8;;;;;;;8.2;100.0;102090;;;;
2022/04/27 00:56:01;;;;;;;9.8;8.8;;;;;;;8.1;100.0;102090;;;;
2022/04/27 00:57:00;;;;;;;9.8;8.8;;;;;;;8.1;100.0;102090;;;;
2022/04/27 00:58:01;;;;;;;9.8;8.8;;;;;;;8.1;100.0;102090;;;;
2022/04/27 00:59:00;;;;;;;9.8;8.8;;;;;;;8.1;100.0;102090;;;;
2022/04/27 01:00:00;;;;;;;9.8;8.8;;;;;;;8.1;100.0;102090;;;;
2022/04/27 01:01:00;;;;;;;9.8;8.8;;;;;;;8.1;100.0;102090;;;;
2022/04/27 01:02:01;;;;;;;9.8;8.8;;;;;;;8.0;100.0;102090;;;;
2022/04/27 01:03:00;;;;;;;9.8;8.8;;;;;;;8.0;100.0;102090;;;;
2022/04/27 01:04:00;;;;;;;9.8;8.8;;;;;;;8.0;100.0;102090;;;;
2022/04/27 01:05:00;;;;;;;9.8;8.8;;;;;;;8.0;100.0;102090;;;;
2022/04/27 01:06:01;;;;;;;9.8;8.8;;;;;;;8.0;100.0;102100;;;;
2022/04/27 01:07:00;;;;;;;9.8;8.8;;;;;;;8.0;100.0;102100;;;;
2022/04/27 01:08:00;;;;;;;9.8;8.8;;;;;;;7.9;100.0;102090;;;;
2022/04/27 01:09:00;;;;;;;9.8;8.8;;;;;;;7.9;100.0;102090;;;;
2022/04/27 01:10:00;;;;;;;9.8;8.8;;;;;;;7.9;100.0;102100;;;;
2022/04/27 01:11:00;;;;;;;9.8;8.8;;;;;;;7.9;100.0;102100;;;;
2022/04/27 01:12:01;;;;;;;9.8;8.8;;;;;;;7.9;100.0;102100;;;;
2022/04/27 01:13:00;;;;;;;9.2;8.3;;;;;;;7.9;100.0;102100;;;;
2022/04/27 01:14:00;;;;;;;9.2;8.3;;;;;;;7.9;100.0;102100;;;;
2022/04/27 01:15:00;;;;;;;9.2;8.3;;;;;;;7.9;100.0;102100;;;;
2022/04/27 01:16:01;;;;;;;9.2;8.3;;;;;;;7.8;100.0;102100;;;;
2022/04/27 01:17:00;;;;;;;9.2;8.3;;;;;;;7.8;100.0;102100;;;;
2022/04/27 01:18:00;;;;;;;9.2;8.3;;;;;;;7.7;100.0;102100;;;;
2022/04/27 01:19:00;;;;;;;9.2;8.3;;;;;;;7.7;100.0;102100;;;;
2022/04/27 01:20:00;;;;;;;9.2;8.3;;;;;;;7.6;100.0;102100;;;;
2022/04/27 01:21:00;;;;;;;9.2;8.3;;;;;;;7.6;100.0;102100;;;;
2022/04/27 01:22:01;;;;;;;9.2;8.3;;;;;;;7.6;100.0;102100;;;;
2022/04/27 01:23:00;;;;;;;9.2;8.3;;;;;;;7.6;100.0;102100;;;;
2022/04/27 01:24:00;;;;;;;9.2;8.3;;;;;;;7.6;100.0;102100;;;;
2022/04/27 01:25:00;;;;;;;9.2;8.3;;;;;;;7.6;100.0;102100;;;;
2022/04/27 01:26:05;;;;;;;9.2;8.3;;;;;;;7.6;100.0;102100;;;;
2022/04/27 01:27:00;;;;;;;9.2;8.3;;;;;;;7.6;100.0;102100;;;;
2022/04/27 01:28:00;;;;;;;9.2;8.3;;;;;;;7.6;100.0;102110;;;;
2022/04/27 01:29:00;;;;;;;9.2;8.3;;;;;;;7.6;100.0;102110;;;;
2022/04/27 01:30:00;;;;;;;9.2;8.3;;;;;;;7.6;100.0;102110;;;;
2022/04/27 01:31:02;;;;;;;9.2;8.3;;;;;;;7.6;100.0;102110;;;;
2022/04/27 01:32:01;;;;;;;9.2;8.3;;;;;;;7.5;100.0;102110;;;;
2022/04/27 01:33:00;;;;;;;11.6;9.3;;;;;;;7.5;100.0;102110;;;;
2022/04/27 01:34:00;;;;;;;11.6;9.3;;;;;;;7.6;100.0;102110;;;;
2022/04/27 01:35:00;;;;;;;11.6;9.3;;;;;;;7.6;100.0;102110;;;;
2022/04/27 01:36:00;;;;;;;11.6;9.3;;;;;;;7.6;100.0;102110;;;;
2022/04/27 01:38:00;;;;;;;11.6;9.3;;;;;;;7.6;100.0;102120;;;;
2022/04/27 01:39:00;;;;;;;11.6;9.3;;;;;;;7.6;100.0;102120;;;;
2022/04/27 01:40:00;;;;;;;11.6;9.3;;;;;;;7.5;100.0;102120;;;;
2022/04/27 01:41:00;;;;;;;11.6;9.3;;;;;;;7.5;100.0;102120;;;;
2022/04/27 01:42:00;;;;;;;11.6;9.3;;;;;;;7.5;100.0;102120;;;;
2022/04/27 01:43:00;;;;;;;11.6;9.3;;;;;;;7.5;100.0;102120;;;;
2022/04/27 01:44:00;;;;;;;11.6;9.3;;;;;;;7.5;100.0;102120;;;;
2022/04/27 01:45:01;;;;;;;11.6;9.3;;;;;;;7.5;100.0;102120;;;;
2022/04/27 01:46:00;;;;;;;11.6;9.3;;;;;;;7.5;100.0;102120;;;;
2022/04/27 01:47:00;;;;;;;11.6;9.3;;;;;;;7.5;100.0;102120;;;;
2022/04/27 01:48:00;;;;;;;11.6;9.3;;;;;;;7.4;100.0;102120;;;;
2022/04/27 01:49:00;;;;;;;11.6;9.3;;;;;;;7.4;100.0;102120;;;;
2022/04/27 01:50:00;;;;;;;11.6;9.3;;;;;;;7.3;100.0;102120;;;;
2022/04/27 01:51:00;;;;;;;11.6;9.3;;;;;;;7.3;100.0;102120;;;;
2022/04/27 01:55:00;;;;;;;11.4;10.2;;;;;;;7.3;100.0;102120;;;;
2022/04/27 01:56:00;;;;;;;11.4;10.2;;;;;;;7.2;100.0;102120;;;;
2022/04/27 01:57:00;;;;;;;11.4;10.2;;;;;;;7.2;100.0;102120;;;;
2022/04/27 01:58:00;;;;;;;11.4;10.2;;;;;;;7.2;100.0;102130;;;;
2022/04/27 01:59:00;;;;;;;11.4;10.2;;;;;;;7.2;100.0;102130;;;;
2022/04/27 02:00:00;;;;;;;11.4;10.2;;;;;;;7.2;100.0;102120;;;;
2022/04/27 02:01:00;;;;;;;11.4;10.2;;;;;;;7.2;100.0;102120;;;;
2022/04/27 02:02:00;;;;;;;11.4;10.2;;;;;;;7.2;100.0;102130;;;;
2022/04/27 02:03:00;;;;;;;11.4;10.2;;;;;;;7.2;100.0;102130;;;;
2022/04/27 02:04:00;;;;;;;11.4;10.2;;;;;;;7.2;100.0;102120;;;;
2022/04/27 02:05:00;;;;;;;11.4;10.2;;;;;;;7.2;100.0;102120;;;;
2022/04/27 02:06:00;;;;;;;11.4;10.2;;;;;;;7.1;100.0;102130;;;;
2022/04/27 02:07:00;;;;;;;11.4;10.2;;;;;;;7.1;100.0;102130;;;;
2022/04/27 02:08:00;;;;;;;11.4;10.2;;;;;;;7.1;100.0;102130;;;;
2022/04/27 02:09:00;;;;;;;11.4;10.2;;;;;;;7.1;100.0;102130;;;;
2022/04/27 02:10:00;;;;;;;11.4;10.2;;;;;;;7.1;100.0;102130;;;;
2022/04/27 02:11:00;;;;;;;11.4;10.2;;;;;;;7.1;100.0;102130;;;;
2022/04/27 02:12:00;;;;;;;11.4;10.2;;;;;;;7.1;100.0;102130;;;;
2022/04/27 02:13:00;;;;;;;11.9;10.7;;;;;;;7.1;100.0;102130;;;;
2022/04/27 02:14:00;;;;;;;11.9;10.7;;;;;;;7.1;100.0;102140;;;;
2022/04/27 02:15:01;;;;;;;11.9;10.7;;;;;;;7.1;100.0;102140;;;;
2022/04/27 02:16:01;;;;;;;11.9;10.7;;;;;;;7.0;100.0;102140;;;;
2022/04/27 02:17:00;;;;;;;11.9;10.7;;;;;;;7.0;100.0;102140;;;;
2022/04/27 02:18:00;;;;;;;11.9;10.7;;;;;;;7.0;100.0;102140;;;;
2022/04/27 02:19:00;;;;;;;11.9;10.7;;;;;;;7.0;100.0;102140;;;;
2022/04/27 02:20:00;;;;;;;11.9;10.7;;;;;;;7.0;100.0;102140;;;;
2022/04/27 02:21:00;;;;;;;11.9;10.7;;;;;;;7.0;100.0;102140;;;;
2022/04/27 02:22:00;;;;;;;11.9;10.7;;;;;;;7.0;100.0;102150;;;;
2022/04/27 02:23:00;;;;;;;11.9;10.7;;;;;;;7.0;100.0;102150;;;;
2022/04/27 02:24:00;;;;;;;11.9;10.7;;;;;;;6.9;100.0;102150;;;;
2022/04/27 02:25:01;;;;;;;11.9;10.7;;;;;;;6.9;100.0;102150;;;;
2022/04/27 02:26:02;;;;;;;11.9;10.7;;;;;;;6.8;100.0;102150;;;;
2022/04/27 02:27:00;;;;;;;11.9;10.7;;;;;;;6.8;100.0;102150;;;;
2022/04/27 02:28:00;;;;;;;11.9;10.7;;;;;;;6.9;100.0;102150;;;;
2022/04/27 02:29:00;;;;;;;11.9;10.7;;;;;;;6.9;100.0;102150;;;;
2022/04/27 02:30:00;;;;;;;11.9;10.7;;;;;;;6.9;100.0;102150;;;;
2022/04/27 02:31:00;;;;;;;11.9;10.7;;;;;;;6.9;100.0;102150;;;;
2022/04/27 02:32:00;;;;;;;11.9;10.7;;;;;;;6.8;100.0;102150;;;;
2022/04/27 02:33:00;;;;;;;12.6;11.4;;;;;;;6.8;100.0;102150;;;;
2022/04/27 02:34:00;;;;;;;12.6;11.4;;;;;;;6.8;100.0;102160;;;;
2022/04/27 02:35:00;;;;;;;12.6;11.4;;;;;;;6.8;100.0;102160;;;;
2022/04/27 02:36:00;;;;;;;12.6;11.4;;;;;;;6.7;100.0;102160;;;;
2022/04/27 02:37:00;;;;;;;12.6;11.4;;;;;;;6.7;100.0;102160;;;;
2022/04/27 02:38:00;;;;;;;12.6;11.4;;;;;;;6.8;100.0;102160;;;;
2022/04/27 02:39:00;;;;;;;12.6;11.4;;;;;;;6.8;100.0;102160;;;;
2022/04/27 02:40:00;;;;;;;12.6;11.4;;;;;;;6.8;100.0;102160;;;;
2022/04/27 02:41:01;;;;;;;12.6;11.4;;;;;;;6.8;100.0;102160;;;;
2022/04/27 02:42:00;;;;;;;12.6;11.4;;;;;;;6.7;100.0;102160;;;;
2022/04/27 02:43:00;;;;;;;12.6;11.4;;;;;;;6.7;100.0;102160;;;;
2022/04/27 02:44:00;;;;;;;12.6;11.4;;;;;;;6.7;100.0;102160;;;;
2022/04/27 02:45:00;;;;;;;12.6;11.4;;;;;;;6.7;100.0;102160;;;;
2022/04/27 02:46:00;;;;;;;12.6;11.4;;;;;;;6.8;100.0;102160;;;;
2022/04/27 02:47:00;;;;;;;12.6;11.4;;;;;;;6.8;100.0;102160;;;;
2022/04/27 02:48:00;;;;;;;12.6;11.4;;;;;;;6.7;100.0;102160;;;;
2022/04/27 02:52:00;;;;;;;12.6;11.4;;;;;;;6.6;100.0;102160;;;;
2022/04/27 02:53:00;;;;;;;14.8;13.3;;;;;;;6.6;100.0;102160;;;;
2022/04/27 02:54:00;;;;;;;14.8;13.3;;;;;;;6.6;100.0;102160;;;;
2022/04/27 02:55:00;;;;;;;14.8;13.3;;;;;;;6.6;100.0;102160;;;;
2022/04/27 02:56:00;;;;;;;14.8;13.3;;;;;;;6.6;100.0;102160;;;;
2022/04/27 02:57:00;;;;;;;14.8;13.3;;;;;;;6.6;100.0;102160;;;;
2022/04/27 02:58:00;;;;;;;14.8;13.3;;;;;;;6.5;100.0;102160;;;;
2022/04/27 02:59:00;;;;;;;14.8;13.3;;;;;;;6.5;100.0;102160;;;;
2022/04/27 03:00:00;;;;;;;14.8;13.3;;;;;;;6.5;100.0;102160;;;;
2022/04/27 03:01:00;;;;;;;14.8;13.3;;;;;;;6.5;100.0;102160;;;;
2022/04/27 03:02:00;;;;;;;14.8;13.3;;;;;;;6.5;100.0;102160;;;;
2022/04/27 03:03:00;;;;;;;14.8;13.3;;;;;;;6.5;100.0;102160;;;;
2022/04/27 03:04:00;;;;;;;14.8;13.3;;;;;;;6.5;100.0;102160;;;;
2022/04/27 03:05:00;;;;;;;14.8;13.3;;;;;;;6.5;100.0;102160;;;;
2022/04/27 03:06:00;;;;;;;14.8;13.3;;;;;;;6.4;100.0;102160;;;;
2022/04/27 03:07:00;;;;;;;14.8;13.3;;;;;;;6.4;100.0;102160;;;;
2022/04/27 03:08:00;;;;;;;14.8;13.3;;;;;;;6.5;100.0;102160;;;;
2022/04/27 03:09:00;;;;;;;14.8;13.3;;;;;;;6.5;100.0;102160;;;;
2022/04/27 03:10:00;;;;;;;14.8;13.3;;;;;;;6.5;100.0;102160;;;;
2022/04/27 03:11:00;;;;;;;14.8;13.3;;;;;;;6.5;100.0;102160;;;;
2022/04/27 03:12:00;;;;;;;14.8;13.3;;;;;;;6.4;100.0;102160;;;;
2022/04/27 03:13:00;;;;;;;14.8;13.4;;;;;;;6.4;100.0;102160;;;;
2022/04/27 03:14:00;;;;;;;14.8;13.4;;;;;;;6.5;100.0;102160;;;;
2022/04/27 03:15:00;;;;;;;14.8;13.4;;;;;;;6.5;100.0;102160;;;;
2022/04/27 03:16:00;;;;;;;14.8;13.4;;;;;;;6.4;100.0;102160;;;;
2022/04/27 03:17:00;;;;;;;14.8;13.4;;;;;;;6.4;100.0;102160;;;;
2022/04/27 03:19:00;;;;;;;14.8;13.4;;;;;;;6.4;100.0;102160;;;;
2022/04/27 03:20:00;;;;;;;14.8;13.4;;;;;;;6.4;100.0;102160;;;;
2022/04/27 03:21:00;;;;;;;14.8;13.4;;;;;;;6.4;100.0;102160;;;;
2022/04/27 03:22:00;;;;;;;14.8;13.4;;;;;;;6.3;100.0;102160;;;;
2022/04/27 03:23:01;;;;;;;14.8;13.4;;;;;;;6.3;100.0;102160;;;;
2022/04/27 03:24:00;;;;;;;14.8;13.4;;;;;;;6.3;100.0;102160;;;;
2022/04/27 03:25:00;;;;;;;14.8;13.4;;;;;;;6.3;100.0;102160;;;;
2022/04/27 03:26:00;;;;;;;14.8;13.4;;;;;;;6.3;100.0;102170;;;;
2022/04/27 03:27:00;;;;;;;14.8;13.4;;;;;;;6.3;100.0;102170;;;;
2022/04/27 03:28:00;;;;;;;14.8;13.4;;;;;;;6.3;100.0;102160;;;;
2022/04/27 03:29:00;;;;;;;14.8;13.4;;;;;;;6.3;100.0;102160;;;;
2022/04/27 03:30:00;;;;;;;14.8;13.4;;;;;;;6.3;100.0;102170;;;;
2022/04/27 03:31:00;;;;;;;14.8;13.4;;;;;;;6.3;100.0;102170;;;;
2022/04/27 03:32:00;;;;;;;14.8;13.4;;;;;;;6.2;100.0;102170;;;;
2022/04/27 03:33:00;;;;;;;16.2;14.6;;;;;;;6.2;100.0;102170;;;;
2022/04/27 03:34:00;;;;;;;16.2;14.6;;;;;;;6.2;100.0;102170;;;;
2022/04/27 03:35:00;;;;;;;16.2;14.6;;;;;;;6.2;100.0;102170;;;;
2022/04/27 03:36:00;;;;;;;16.2;14.6;;;;;;;6.3;100.0;102170;;;;
2022/04/27 03:37:00;;;;;;;16.2;14.6;;;;;;;6.3;100.0;102170;;;;
2022/04/27 03:38:01;;;;;;;16.2;14.6;;;;;;;6.2;100.0;102170;;;;
2022/04/27 03:39:00;;;;;;;16.2;14.6;;;;;;;6.2;100.0;102170;;;;
2022/04/27 03:40:00;;;;;;;16.2;14.6;;;;;;;6.2;100.0;102170;;;;
2022/04/27 03:41:00;;;;;;;16.2;14.6;;;;;;;6.2;100.0;102170;;;;
2022/04/27 03:42:00;;;;;;;16.2;14.6;;;;;;;6.2;100.0;102170;;;;
2022/04/27 03:43:00;;;;;;;16.2;14.6;;;;;;;6.2;100.0;102170;;;;
2022/04/27 03:44:00;;;;;;;16.2;14.6;;;;;;;6.1;100.0;102170;;;;
2022/04/27 03:45:00;;;;;;;16.2;14.6;;;;;;;6.1;100.0;102170;;;;
2022/04/27 03:46:00;;;;;;;16.2;14.6;;;;;;;6.1;100.0;102170;;;;
2022/04/27 03:47:00;;;;;;;16.2;14.6;;;;;;;6.1;100.0;102170;;;;
2022/04/27 03:48:00;;;;;;;16.2;14.6;;;;;;;6.1;100.0;102180;;;;
2022/04/27 03:49:00;;;;;;;16.2;14.6;;;;;;;6.1;100.0;102180;;;;
2022/04/27 03:50:04;;;;;;;16.2;14.6;;;;;;;6.0;100.0;102170;;;;
2022/04/27 03:51:00;;;;;;;16.2;14.6;;;;;;;6.0;100.0;102170;;;;
2022/04/27 03:52:01;;;;;;;16.2;14.6;;;;;;;6.0;100.0;102170;;;;
2022/04/27 03:53:00;;;;;;;17.1;15.5;;;;;;;6.0;100.0;102170;;;;
2022/04/27 03:54:00;;;;;;;17.1;15.5;;;;;;;6.1;100.0;102180;;;;
2022/04/27 03:55:00;;;;;;;17.1;15.5;;;;;;;6.1;100.0;102180;;;;
2022/04/27 03:56:00;;;;;;;17.1;15.5;;;;;;;6.0;100.0;102180;;;;
2022/04/27 03:57:00;;;;;;;17.1;15.5;;;;;;;6.0;100.0;102180;;;;
2022/04/27 03:58:01;;;;;;;17.1;15.5;;;;;;;5.9;100.0;102190;;;;
2022/04/27 03:59:00;;;;;;;17.1;15.5;;;;;;;5.9;100.0;102190;;;;
2022/04/27 04:00:00;;;;;;;17.1;15.5;;;;;;;6.0;100.0;102190;;;;
2022/04/27 04:01:00;;;;;;;17.1;15.5;;;;;;;6.0;100.0;102190;;;;
2022/04/27 04:02:00;;;;;;;17.1;15.5;;;;;;;5.9;100.0;102190;;;;
2022/04/27 04:03:01;;;;;;;17.1;15.5;;;;;;;5.9;100.0;102190;;;;
2022/04/27 04:04:00;;;;;;;17.1;15.5;;;;;;;5.9;100.0;102190;;;;
2022/04/27 04:05:00;;;;;;;17.1;15.5;;;;;;;5.9;100.0;102190;;;;
2022/04/27 04:06:00;;;;;;;17.1;15.5;;;;;;;5.9;100.0;102190;;;;
2022/04/27 04:07:01;;;;;;;17.1;15.5;;;;;;;5.9;100.0;102190;;;;
2022/04/27 04:08:00;;;;;;;17.1;15.5;;;;;;;5.9;100.0;102190;;;;
2022/04/27 04:09:00;;;;;;;17.1;15.5;;;;;;;5.9;100.0;102190;;;;
2022/04/27 04:10:00;;;;;;;17.1;15.5;;;;;;;5.9;100.0;102190;;;;
2022/04/27 04:11:00;;;;;;;17.1;15.5;;;;;;;5.9;100.0;102190;;;;
2022/04/27 04:12:00;;;;;;;17.1;15.5;;;;;;;5.9;100.0;102190;;;;
2022/04/27 04:13:00;;;;;;;18.3;16.3;;;;;;;5.9;100.0;102190;;;;
2022/04/27 04:14:00;;;;;;;18.3;16.3;;;;;;;5.9;100.0;102190;;;;
2022/04/27 04:15:02;;;;;;;18.3;16.3;;;;;;;5.9;100.0;102190;;;;
2022/04/27 04:16:00;;;;;;;18.3;16.3;;;;;;;5.9;100.0;102200;;;;
2022/04/27 04:17:00;;;;;;;18.3;16.3;;;;;;;5.9;100.0;102200;;;;
2022/04/27 04:18:00;;;;;;;18.3;16.3;;;;;;;5.8;100.0;102200;;;;
2022/04/27 04:19:00;;;;;;;18.3;16.3;;;;;;;5.8;100.0;102200;;;;
2022/04/27 04:20:00;;;;;;;18.3;16.3;;;;;;;5.8;100.0;102200;;;;
2022/04/27 04:21:00;;;;;;;18.3;16.3;;;;;;;5.8;100.0;102200;;;;
2022/04/27 04:22:00;;;;;;;18.3;16.3;;;;;;;5.8;100.0;102200;;;;
2022/04/27 04:23:00;;;;;;;18.3;16.3;;;;;;;5.8;100.0;102200;;;;
2022/04/27 04:24:00;;;;;;;18.3;16.3;;;;;;;5.8;100.0;102200;;;;
2022/04/27 04:29:00;;;;;;;18.3;16.3;;;;;;;5.7;100.0;102210;;;;
2022/04/27 04:30:00;;;;;;;18.3;16.3;;;;;;;5.7;100.0;102210;;;;
2022/04/27 04:31:01;;;;;;;18.3;16.3;;;;;;;5.7;100.0;102210;;;;
2022/04/27 04:32:00;;;;;;;18.3;16.3;;;;;;;5.8;100.0;102210;;;;
2022/04/27 04:33:00;;;;;;;18.6;16.7;;;;;;;5.8;100.0;102210;;;;
2022/04/27 04:34:00;;;;;;;18.6;16.7;;;;;;;5.8;100.0;102210;;;;
2022/04/27 04:35:00;;;;;;;18.6;16.7;;;;;;;5.8;100.0;102210;;;;
2022/04/27 04:36:00;;;;;;;18.6;16.7;;;;;;;5.6;100.0;102220;;;;
2022/04/27 04:37:01;;;;;;;18.6;16.7;;;;;;;5.6;100.0;102220;;;;
2022/04/27 04:38:00;;;;;;;18.6;16.7;;;;;;;5.6;100.0;102220;;;;
2022/04/27 04:39:00;;;;;;;18.6;16.7;;;;;;;5.6;100.0;102220;;;;
2022/04/27 04:40:01;;;;;;;18.6;16.7;;;;;;;5.6;100.0;102220;;;;
2022/04/27 04:41:00;;;;;;;18.6;16.7;;;;;;;5.6;100.0;102220;;;;
2022/04/27 04:42:00;;;;;;;18.6;16.7;;;;;;;5.6;100.0;102220;;;;
2022/04/27 04:43:00;;;;;;;18.6;16.7;;;;;;;5.6;100.0;102220;;;;
2022/04/27 04:44:00;;;;;;;18.6;16.7;;;;;;;5.7;100.0;102230;;;;
2022/04/27 04:45:00;;;;;;;18.6;16.7;;;;;;;5.7;100.0;102230;;;;
2022/04/27 04:46:00;;;;;;;18.6;16.7;;;;;;;5.7;100.0;102230;;;;
2022/04/27 04:47:00;;;;;;;18.6;16.7;;;;;;;5.7;100.0;102230;;;;
2022/04/27 04:48:00;;;;;;;18.6;16.7;;;;;;;5.7;100.0;102230;;;;
2022/04/27 04:49:00;;;;;;;18.6;16.7;;;;;;;5.7;100.0;102230;;;;
2022/04/27 04:50:00;;;;;;;18.6;16.7;;;;;;;5.7;100.0;102230;;;;
2022/04/27 04:51:00;;;;;;;18.6;16.7;;;;;;;5.7;100.0;102230;;;;
2022/04/27 04:52:00;;;;;;;18.6;16.7;;;;;;;5.8;100.0;102230;;;;
2022/04/27 04:53:00;;;;;;;18.3;16.7;;;;;;;5.8;100.0;102230;;;;
2022/04/27 04:54:00;;;;;;;18.3;16.7;;;;;;;5.8;100.0;102240;;;;
2022/04/27 04:55:00;;;;;;;18.3;16.7;;;;;;;5.8;100.0;102240;;;;
2022/04/27 04:56:03;;;;;;;18.3;16.7;;;;;;;5.8;100.0;102240;;;;
2022/04/27 04:57:00;;;;;;;18.3;16.7;;;;;;;5.8;100.0;102240;;;;
2022/04/27 04:58:00;;;;;;;18.3;16.7;;;;;;;5.7;100.0;102240;;;;
2022/04/27 04:59:00;;;;;;;18.3;16.7;;;;;;;5.7;100.0;102240;;;;
2022/04/27 05:00:00;;;;;;;18.3;16.7;;;;;;;5.8;100.0;102240;;;;
2022/04/27 05:01:01;;;;;;;18.3;16.7;;;;;;;5.8;100.0;102240;;;;
2022/04/27 05:02:00;;;;;;;18.3;16.7;;;;;;;5.7;100.0;102240;;;;
2022/04/27 05:03:00;;;;;;;18.3;16.7;;;;;;;5.7;100.0;102240;;;;
2022/04/27 05:04:06;;;;;;;18.3;16.7;;;;;;;5.7;100.0;102240;;;;
2022/04/27 05:05:02;;;;;;;18.3;16.7;;;;;;;5.7;100.0;102240;;;;
2022/04/27 05:06:00;;;;;;;18.3;16.7;;;;;;;5.8;100.0;102240;;;;
2022/04/27 05:07:00;;;;;;;18.3;16.7;;;;;;;5.8;100.0;102240;;;;
2022/04/27 05:08:00;;;;;;;18.3;16.7;;;;;;;5.8;100.0;102250;;;;
2022/04/27 05:09:00;;;;;;;18.3;16.7;;;;;;;5.8;100.0;102250;;;;
2022/04/27 05:10:00;;;;;;;18.3;16.7;;;;;;;5.8;100.0;102250;;;;
2022/04/27 05:11:00;;;;;;;18.3;16.7;;;;;;;5.8;100.0;102250;;;;
2022/04/27 05:12:00;;;;;;;19.7;17.1;;;;;;;5.8;100.0;102250;;;;
2022/04/27 05:13:00;;;;;;;19.7;17.1;;;;;;;5.8;100.0;102250;;;;
2022/04/27 05:14:00;;;;;;;19.7;17.1;;;;;;;5.8;100.0;102250;;;;
2022/04/27 05:15:00;;;;;;;19.7;17.1;;;;;;;5.8;100.0;102250;;;;
2022/04/27 05:16:00;;;;;;;19.7;17.1;;;;;;;5.8;100.0;102260;;;;
2022/04/27 05:17:00;;;;;;;19.7;17.1;;;;;;;5.8;100.0;102260;;;;
2022/04/27 05:18:00;;;;;;;19.7;17.1;;;;;;;5.8;100.0;102260;;;;
2022/04/27 05:19:00;;;;;;;19.7;17.1;;;;;;;5.8;100.0;102260;;;;
2022/04/27 05:20:00;;;;;;;19.7;17.1;;;;;;;5.9;100.0;102260;;;;
2022/04/27 05:21:00;;;;;;;19.7;17.1;;;;;;;5.9;100.0;102260;;;;
2022/04/27 05:22:00;;;;;;;19.7;17.1;;;;;;;5.9;100.0;102250;;;;
2022/04/27 05:23:00;;;;;;;19.7;17.1;;;;;;;5.9;100.0;102250;;;;
2022/04/27 05:24:00;;;;;;;19.7;17.1;;;;;;;5.9;100.0;102250;;;;
2022/04/27 05:25:01;;;;;;;19.7;17.1;;;;;;;5.9;100.0;102250;;;;
2022/04/27 05:26:00;;;;;;;19.7;17.1;;;;;;;5.9;100.0;102260;;;;
2022/04/27 05:27:00;;;;;;;19.7;17.1;;;;;;;5.9;100.0;102260;;;;
2022/04/27 05:28:02;;;;;;;19.7;17.1;;;;;;;5.8;100.0;102260;;;;
2022/04/27 05:32:00;;;;;;;18.9;17.0;;;;;;;6.1;100.0;102270;;;;
2022/04/27 05:33:00;;;;;;;18.9;17.0;;;;;;;6.1;100.0;102270;;;;
2022/04/27 05:34:00;;;;;;;18.9;17.0;;;;;;;6.1;100.0;102270;;;;
2022/04/27 05:35:00;;;;;;;18.9;17.0;;;;;;;6.1;100.0;102270;;;;
2022/04/27 05:36:00;;;;;;;18.9;17.0;;;;;;;6.1;100.0;102280;;;;
2022/04/27 05:37:00;;;;;;;18.9;17.0;;;;;;;6.1;100.0;102280;;;;
2022/04/27 05:38:00;;;;;;;18.9;17.0;;;;;;;6.1;100.0;102280;;;;
2022/04/27 05:39:00;;;;;;;18.9;17.0;;;;;;;6.1;100.0;102280;;;;
2022/04/27 05:40:00;;;;;;;18.9;17.0;;;;;;;6.2;100.0;102280;;;;
2022/04/27 05:41:00;;;;;;;18.9;17.0;;;;;;;6.2;100.0;102280;;;;
2022/04/27 05:42:00;;;;;;;18.9;17.0;;;;;;;6.2;100.0;102280;;;;
2022/04/27 05:43:00;;;;;;;18.9;17.0;;;;;;;6.2;100.0;102280;;;;
2022/04/27 05:44:02;;;;;;;18.9;17.0;;;;;;;6.2;100.0;102280;;;;
2022/04/27 05:45:00;;;;;;;18.9;17.0;;;;;;;6.2;100.0;102280;;;;
2022/04/27 05:46:00;;;;;;;18.9;17.0;;;;;;;6.2;100.0;102280;;;;
2022/04/27 05:47:00;;;;;;;18.9;17.0;;;;;;;6.2;100.0;102280;;;;
2022/04/27 05:48:00;;;;;;;18.9;17.0;;;;;;;6.3;100.0;102280;;;;
2022/04/27 05:49:00;;;;;;;18.9;17.0;;;;;;;6.3;100.0;102280;;;;
2022/04/27 05:50:00;;;;;;;18.9;17.0;;;;;;;6.3;100.0;102280;;;;
2022/04/27 05:51:01;;;;;;;18.9;17.0;;;;;;;6.3;100.0;102280;;;;
2022/04/27 05:52:00;;;;;;;18.0;16.3;;;;;;;6.4;100.0;102290;;;;
2022/04/27 05:53:01;;;;;;;18.0;16.3;;;;;;;6.4;100.0;102290;;;;
2022/04/27 05:54:00;;;;;;;18.0;16.3;;;;;;;6.4;100.0;102290;;;;
2022/04/27 05:55:00;;;;;;;18.0;16.3;;;;;;;6.4;100.0;102290;;;;
2022/04/27 05:56:00;;;;;;;18.0;16.3;;;;;;;6.5;100.0;102290;;;;
2022/04/27 05:57:00;;;;;;;18.0;16.3;;;;;;;6.5;100.0;102290;;;;
2022/04/27 05:58:00;;;;;;;18.0;16.3;;;;;;;6.6;100.0;102300;;;;
2022/04/27 05:59:01;;;;;;;18.0;16.3;;;;;;;6.6;100.0;102300;;;;
2022/04/27 06:00:00;;;;;;;18.0;16.3;;;;;;;6.6;100.0;102290;;;;
2022/04/27 06:01:00;;;;;;;18.0;16.3;;;;;;;6.6;100.0;102290;;;;
2022/04/27 06:02:00;;;;;;;18.0;16.3;;;;;;;6.7;100.0;102290;;;;
2022/04/27 06:03:00;;;;;;;18.0;16.3;;;;;;;6.7;100.0;102290;;;;
2022/04/27 06:04:00;;;;;;;18.0;16.3;;;;;;;6.7;100.0;102290;;;;
2022/04/27 06:05:00;;;;;;;18.0;16.3;;;;;;;6.7;100.0;102290;;;;
2022/04/27 06:06:00;;;;;;;18.0;16.3;;;;;;;6.8;100.0;102300;;;;
2022/04/27 06:07:00;;;;;;;18.0;16.3;;;;;;;6.8;100.0;102300;;;;
2022/04/27 06:08:00;;;;;;;18.0;16.3;;;;;;;6.8;100.0;102300;;;;
2022/04/27 06:09:00;;;;;;;18.0;16.3;;;;;;;6.8;100.0;102300;;;;
2022/04/27 06:10:00;;;;;;;18.0;16.3;;;;;;;6.9;100.0;102300;;;;
2022/04/27 06:11:00;;;;;;;18.0;16.3;;;;;;;6.9;100.0;102300;;;;
2022/04/27 06:12:00;;;;;;;16.9;15.1;;;;;;;7.1;100.0;102310;;;;
2022/04/27 06:13:00;;;;;;;16.9;15.1;;;;;;;7.1;100.0;102310;;;;
2022/04/27 06:14:00;;;;;;;16.9;15.1;;;;;;;7.0;100.0;102310;;;;
2022/04/27 06:15:00;;;;;;;16.9;15.1;;;;;;;7.0;100.0;102310;;;;
2022/04/27 06:16:00;;;;;;;16.9;15.1;;;;;;;7.2;100.0;102310;;;;
2022/04/27 06:17:00;;;;;;;16.9;15.1;;;;;;;7.2;100.0;102310;;;;
2022/04/27 06:18:00;;;;;;;16.9;15.1;;;;;;;7.2;100.0;102310;;;;
2022/04/27 06:19:00;;;;;;;16.9;15.1;;;;;;;7.2;100.0;102310;;;;
2022/04/27 06:20:00;;;;;;;16.9;15.1;;;;;;;7.3;100.0;102310;;;;
2022/04/27 06:21:00;;;;;;;16.9;15.1;;;;;;;7.3;100.0;102310;;;;
2022/04/27 06:22:00;;;;;;;16.9;15.1;;;;;;;7.3;100.0;102310;;;;
2022/04/27 06:23:00;;;;;;;16.9;15.1;;;;;;;7.3;100.0;102310;;;;
2022/04/27 06:24:00;;;;;;;16.9;15.1;;;;;;;7.4;100.0;102310;;;;
2022/04/27 06:25:00;;;;;;;16.9;15.1;;;;;;;7.4;100.0;102310;;;;
2022/04/27 06:26:06;;;;;;;16.9;15.1;;;;;;;7.4;100.0;102310;;;;
2022/04/27 06:27:00;;;;;;;16.9;15.1;;;;;;;7.4;100.0;102310;;;;
2022/04/27 06:28:00;;;;;;;16.9;15.1;;;;;;;7.4;100.0;102310;;;;
2022/04/27 06:29:00;;;;;;;16.9;15.1;;;;;;;7.4;100.0;102310;;;;
2022/04/27 06:30:00;;;;;;;16.9;15.1;;;;;;;7.5;100.0;102320;;;;
2022/04/27 06:31:00;;;;;;;16.9;15.1;;;;;;;7.5;100.0;102320;;;;
2022/04/27 06:32:00;;;;;;;15.1;13.2;;;;;;;7.6;100.0;102320;;;;
2022/04/27 06:33:00;;;;;;;15.1;13.2;;;;;;;7.6;100.0;102320;;;;
2022/04/27 06:34:00;;;;;;;15.1;13.2;;;;;;;7.7;100.0;102320;;;;